Terminal Aerodrome Forecast
Issued by NWS Paducah, KY

Home | Current Version | Previous Version | Graphics & Text | Print | Product List | Glossary On
Versions: 1 2 3 4 5 6 7 8 9 10 11 12 13 14 15 16 17 18
916
FTUS43 KPAH 170717 AAA
TAFPAH
TAF AMD
KPAH 170717Z 1707/1806 20004KT P6SM SCT250
     FM171400 23010KT P6SM VCSH SCT025 BKN040
     FM171800 23012G18KT P6SM VCTS BKN030CB
     FM180000 25006KT P6SM VCSH BKN035=

USA.gov is the U.S. government's official web portal to all federal, state and local government web resources and services.